createdAt,value
2023-03-16T00:01:41.722Z,84.34
2023-03-16T00:04:49.863Z,84.41
2023-03-16T00:07:58.163Z,84.39
2023-03-16T00:11:07.690Z,84.55
2023-03-16T00:14:15.770Z,85.21
2023-03-16T00:17:23.803Z,84.20
2023-03-16T00:20:33.516Z,84.91
2023-03-16T00:23:42.530Z,84.68
2023-03-16T00:26:54.728Z,85.32
2023-03-16T00:30:03.617Z,85.64
2023-03-16T00:33:12.469Z,84.95
2023-03-16T00:36:22.680Z,85.40
2023-03-16T00:39:35.528Z,85.76
2023-03-16T00:42:44.977Z,85.95
2023-03-16T00:45:59.062Z,85.36
2023-03-16T00:49:09.410Z,86.57
2023-03-16T00:52:18.012Z,86.05
2023-03-16T00:55:27.043Z,86.24
2023-03-16T00:58:39.237Z,85.50
2023-03-16T01:01:47.815Z,85.72
2023-03-16T01:04:55.893Z,85.74
2023-03-16T01:08:04.296Z,85.36
2023-03-16T01:11:16.515Z,85.10
2023-03-16T01:14:26.909Z,85.62
2023-03-16T01:17:35.447Z,85.55
2023-03-16T01:20:50.449Z,85.63
2023-03-16T01:23:58.927Z,84.50
2023-03-16T01:27:07.828Z,85.17
2023-03-16T01:30:17.929Z,85.88
2023-03-16T01:33:29.076Z,86.01
2023-03-16T01:36:37.389Z,84.82
2023-03-16T01:39:49.439Z,84.99
2023-03-16T01:43:04.441Z,85.73
2023-03-16T01:46:23.531Z,85.38
2023-03-16T01:49:38.966Z,84.53
2023-03-16T01:52:47.070Z,84.85
2023-03-16T01:55:55.701Z,85.53
2023-03-16T01:59:12.083Z,84.53
2023-03-16T02:02:26.304Z,84.02
2023-03-16T02:05:44.020Z,84.02
2023-03-16T02:08:58.793Z,84.06
2023-03-16T02:12:18.481Z,84.22
2023-03-16T02:15:31.758Z,84.33
2023-03-16T02:18:41.541Z,84.38
2023-03-16T02:22:02.144Z,84.57
2023-03-16T02:25:13.990Z,85.66
2023-03-16T02:28:31.963Z,85.83
2023-03-16T02:31:41.662Z,85.90
2023-03-16T02:34:49.938Z,86.11
2023-03-16T02:37:58.080Z,86.03
2023-03-16T02:41:15.445Z,85.95
2023-03-16T02:44:29.664Z,86.42
2023-03-16T02:47:45.694Z,86.39
2023-03-16T02:50:55.768Z,86.97
2023-03-16T02:54:04.938Z,86.24
2023-03-16T02:57:15.758Z,86.67
2023-03-16T03:00:24.954Z,87.11
2023-03-16T03:03:35.052Z,86.63
2023-03-16T03:06:43.227Z,87.61
2023-03-16T03:09:53.592Z,87.21
2023-03-16T03:13:02.308Z,86.47
2023-03-16T03:16:11.616Z,86.89
2023-03-16T03:19:21.285Z,87.37
2023-03-16T03:22:29.986Z,87.44
2023-03-16T03:25:38.104Z,87.40
2023-03-16T03:28:47.277Z,86.73
2023-03-16T03:31:55.436Z,87.11
2023-03-16T03:35:06.107Z,87.26
2023-03-16T03:38:14.240Z,86.89
2023-03-16T03:41:26.075Z,87.37
2023-03-16T03:44:35.609Z,87.05
2023-03-16T03:47:45.466Z,87.02
2023-03-16T03:51:01.161Z,87.04
2023-03-16T03:54:38.659Z,87.35
2023-03-16T03:57:50.881Z,87.53
2023-03-16T04:00:59.198Z,87.20
2023-03-16T04:04:07.431Z,87.71
2023-03-16T04:07:17.142Z,87.90
2023-03-16T04:10:29.373Z,86.85
2023-03-16T04:13:37.819Z,87.18
2023-03-16T04:16:46.459Z,86.90
2023-03-16T04:19:55.436Z,88.15
2023-03-16T04:23:05.333Z,88.01
2023-03-16T04:26:16.871Z,87.07
2023-03-16T04:29:28.141Z,86.98
2023-03-16T04:32:40.181Z,87.15
2023-03-16T04:35:48.478Z,87.53
2023-03-16T04:38:59.861Z,87.04
2023-03-16T04:42:08.553Z,86.45
2023-03-16T04:45:18.763Z,87.44
2023-03-16T04:48:29.276Z,87.36
2023-03-16T04:51:40.539Z,87.08
2023-03-16T04:54:52.637Z,87.65
2023-03-16T04:58:01.476Z,87.53
2023-03-16T05:01:14.623Z,87.40
2023-03-16T05:04:24.584Z,87.14
2023-03-16T05:07:33.287Z,87.54
2023-03-16T05:10:44.651Z,87.19
2023-03-16T05:13:53.347Z,87.98
2023-03-16T05:17:03.932Z,88.37
2023-03-16T05:20:16.481Z,87.71
2023-03-16T05:23:30.875Z,86.96
2023-03-16T05:26:44.622Z,87.14
2023-03-16T05:29:56.465Z,86.72
2023-03-16T05:33:05.976Z,86.78
2023-03-16T05:36:15.060Z,87.19
2023-03-16T05:39:26.478Z,87.04
2023-03-16T05:42:36.000Z,86.54
2023-03-16T05:45:44.521Z,86.74
2023-03-16T05:48:55.934Z,86.32
2023-03-16T05:52:05.183Z,87.29
2023-03-16T05:55:18.971Z,86.48
2023-03-16T05:58:34.676Z,85.84
2023-03-16T06:01:46.924Z,85.13
2023-03-16T06:04:55.670Z,84.93
2023-03-16T06:08:05.751Z,83.79
2023-03-16T06:11:16.398Z,84.23
2023-03-16T06:14:28.271Z,83.48
2023-03-16T06:17:37.961Z,83.37
2023-03-16T06:20:47.773Z,83.70
2023-03-16T06:23:56.500Z,81.94
2023-03-16T06:27:05.231Z,81.38
2023-03-16T06:30:25.102Z,80.86
2023-03-16T06:33:33.923Z,80.35
2023-03-16T06:36:42.240Z,80.26
2023-03-16T06:39:54.321Z,80.04
2023-03-16T06:43:02.688Z,80.11
2023-03-16T06:46:12.909Z,79.88
2023-03-16T06:49:21.786Z,80.16
2023-03-16T06:52:32.064Z,80.41
2023-03-16T06:55:41.714Z,78.53
2023-03-16T06:58:52.084Z,79.56
2023-03-16T07:02:02.358Z,77.90
2023-03-16T07:05:14.131Z,78.27
2023-03-16T07:08:22.751Z,78.06
2023-03-16T07:11:32.495Z,77.81
2023-03-16T07:14:42.581Z,78.73
2023-03-16T07:17:57.661Z,78.89
2023-03-16T07:21:08.274Z,78.02
2023-03-16T07:24:17.406Z,77.35
2023-03-16T07:27:27.409Z,77.97
2023-03-16T07:30:35.577Z,76.85
2023-03-16T07:33:45.127Z,76.83
2023-03-16T07:36:59.479Z,77.15
2023-03-16T07:40:13.943Z,75.48
2023-03-16T07:43:22.580Z,75.05
2023-03-16T07:46:32.725Z,73.85
2023-03-16T07:49:42.619Z,73.50
2023-03-16T07:52:51.385Z,72.42
2023-03-16T07:55:59.979Z,71.74
2023-03-16T07:59:08.382Z,71.76
2023-03-16T08:02:21.558Z,71.15
2023-03-16T08:05:33.205Z,70.12
2023-03-16T08:08:45.206Z,70.52
2023-03-16T08:12:01.970Z,70.73
2023-03-16T08:15:11.765Z,70.56
2023-03-16T08:18:21.421Z,70.16
2023-03-16T08:21:31.279Z,70.33
2023-03-16T08:24:39.983Z,70.17
2023-03-16T08:27:51.189Z,70.34
2023-03-16T08:30:59.439Z,69.98
2023-03-16T08:34:24.571Z,69.98
2023-03-16T08:37:34.232Z,69.66
2023-03-16T08:40:47.621Z,69.42
2023-03-16T08:43:57.799Z,70.03
2023-03-16T08:47:12.213Z,70.12
2023-03-16T08:50:23.482Z,70.55
2023-03-16T08:53:33.464Z,70.54
2023-03-16T08:56:41.859Z,69.48
2023-03-16T08:59:51.113Z,69.32
2023-03-16T09:03:00.744Z,69.83
2023-03-16T09:06:17.514Z,69.11
2023-03-16T09:09:27.445Z,67.88
2023-03-16T09:12:38.477Z,67.13
2023-03-16T09:15:46.982Z,67.33
2023-03-16T09:18:55.882Z,67.27
2023-03-16T09:22:04.154Z,67.10
2023-03-16T09:25:14.443Z,67.30
2023-03-16T09:28:22.666Z,67.94
2023-03-16T09:31:31.196Z,68.12
2023-03-16T09:34:39.671Z,69.66
2023-03-16T09:38:04.742Z,69.50
2023-03-16T09:41:40.265Z,68.41
2023-03-16T09:45:06.484Z,67.69
2023-03-16T09:48:18.909Z,67.95
2023-03-16T09:51:39.529Z,69.84
2023-03-16T09:54:58.081Z,68.57
2023-03-16T09:58:17.776Z,66.81
2023-03-16T10:01:44.776Z,65.76
2023-03-16T10:05:08.206Z,65.40
2023-03-16T10:08:24.515Z,64.90
2023-03-16T10:11:38.418Z,65.07
2023-03-16T10:14:55.177Z,63.87
2023-03-16T10:18:13.476Z,62.59
2023-03-16T10:21:25.208Z,61.59
2023-03-16T10:24:49.526Z,62.29
2023-03-16T10:27:57.752Z,60.98
2023-03-16T10:31:08.112Z,60.40
2023-03-16T10:34:16.990Z,57.71
2023-03-16T10:37:28.302Z,58.58
2023-03-16T10:40:40.216Z,58.63
2023-03-16T10:43:52.520Z,57.56
2023-03-16T10:47:05.454Z,58.22
2023-03-16T10:50:16.807Z,59.30
2023-03-16T10:53:30.534Z,61.12
2023-03-16T10:56:38.623Z,60.34
2023-03-16T10:59:50.778Z,59.62
2023-03-16T11:03:02.514Z,61.38
2023-03-16T11:06:22.889Z,61.44
2023-03-16T11:09:35.535Z,59.30
2023-03-16T11:12:49.128Z,58.90
2023-03-16T11:16:02.744Z,58.89
2023-03-16T11:19:22.334Z,59.83
2023-03-16T11:22:31.745Z,59.44
2023-03-16T11:25:47.767Z,61.82
2023-03-16T11:29:08.870Z,61.98
2023-03-16T11:32:24.815Z,63.79
2023-03-16T11:35:58.393Z,62.95
2023-03-16T11:39:24.814Z,62.52
2023-03-16T11:42:40.103Z,61.71
2023-03-16T11:46:03.084Z,62.27
2023-03-16T11:49:42.859Z,60.80
2023-03-16T11:53:05.041Z,62.53
2023-03-16T11:56:29.789Z,62.55
2023-03-16T12:00:18.291Z,62.20
2023-03-16T12:04:10.244Z,62.52
2023-03-16T12:07:39.580Z,60.73
2023-03-16T12:10:56.325Z,60.63
2023-03-16T12:14:18.256Z,61.56
2023-03-16T12:17:31.415Z,59.85
2023-03-16T12:20:53.453Z,57.99
2023-03-16T12:24:07.055Z,59.25
2023-03-16T12:27:23.973Z,58.84
2023-03-16T12:30:46.084Z,58.33
2023-03-16T12:34:16.564Z,58.34
2023-03-16T12:37:38.487Z,57.71
2023-03-16T12:40:54.877Z,58.79
2023-03-16T12:44:16.073Z,55.12
2023-03-16T12:47:33.651Z,56.25
2023-03-16T12:50:51.952Z,55.71
2023-03-16T12:54:00.629Z,56.95
2023-03-16T12:57:16.329Z,53.03
2023-03-16T13:00:35.897Z,54.89
2023-03-16T13:03:48.073Z,55.19
2023-03-16T13:07:07.731Z,54.78
2023-03-16T13:10:20.698Z,54.77
2023-03-16T13:13:29.096Z,53.46
2023-03-16T13:16:39.844Z,52.09
2023-03-16T13:20:08.958Z,52.94
2023-03-16T13:23:24.438Z,52.13
2023-03-16T13:26:43.273Z,52.55
2023-03-16T13:29:57.931Z,50.95
2023-03-16T13:33:20.651Z,52.33
2023-03-16T13:36:31.875Z,52.17
2023-03-16T13:39:40.640Z,51.43
2023-03-16T13:42:52.904Z,50.19
2023-03-16T13:46:01.176Z,51.60
2023-03-16T13:49:13.300Z,52.31
2023-03-16T13:52:29.479Z,51.42
2023-03-16T13:55:40.284Z,51.34
2023-03-16T13:58:52.697Z,51.47
2023-03-16T14:02:02.864Z,49.94
2023-03-16T14:05:19.988Z,50.80
2023-03-16T14:08:29.805Z,50.93
2023-03-16T14:11:38.678Z,50.44
2023-03-16T14:14:51.032Z,50.01
2023-03-16T14:18:14.647Z,49.77
2023-03-16T14:21:30.794Z,49.00
2023-03-16T14:24:40.583Z,49.66
2023-03-16T14:27:49.343Z,48.97
2023-03-16T14:31:07.649Z,49.14
2023-03-16T14:34:29.891Z,49.47
2023-03-16T14:37:41.132Z,48.03
2023-03-16T14:40:56.192Z,50.68
2023-03-16T14:44:04.904Z,49.53
2023-03-16T14:47:27.973Z,48.85
2023-03-16T14:50:37.173Z,47.44
2023-03-16T14:53:46.636Z,47.62
2023-03-16T14:57:00.661Z,47.97
2023-03-16T15:00:12.605Z,48.74
2023-03-16T15:03:24.630Z,47.89
2023-03-16T15:06:34.320Z,49.64
2023-03-16T15:09:44.385Z,49.26
2023-03-16T15:12:54.860Z,49.23
2023-03-16T15:16:04.511Z,48.87
2023-03-16T15:19:12.665Z,48.59
2023-03-16T15:22:28.480Z,48.80
2023-03-16T15:25:41.301Z,48.76
2023-03-16T15:28:49.490Z,48.78
2023-03-16T15:31:57.708Z,48.51
2023-03-16T15:35:06.875Z,49.30
2023-03-16T15:38:19.128Z,49.40
2023-03-16T15:41:35.251Z,50.27
2023-03-16T15:44:58.191Z,49.29
2023-03-16T15:48:07.280Z,50.32
2023-03-16T15:51:24.426Z,50.88
2023-03-16T15:54:35.059Z,50.38
2023-03-16T15:57:45.147Z,50.31
2023-03-16T16:00:57.104Z,51.00
2023-03-16T16:04:15.427Z,51.12
2023-03-16T16:07:23.669Z,51.36
2023-03-16T16:10:32.263Z,51.88
2023-03-16T16:13:45.026Z,51.27
2023-03-16T16:16:54.869Z,51.96
2023-03-16T16:20:03.247Z,52.25
2023-03-16T16:23:11.383Z,52.72
2023-03-16T16:26:46.938Z,52.87
2023-03-16T16:29:57.943Z,53.07
2023-03-16T16:33:26.622Z,52.83
2023-03-16T16:36:35.489Z,53.74
2023-03-16T16:39:44.142Z,53.40
2023-03-16T16:42:54.936Z,53.58
2023-03-16T16:46:14.006Z,55.50
2023-03-16T16:49:28.582Z,55.03
2023-03-16T16:52:37.283Z,55.34
2023-03-16T16:55:46.018Z,55.59
2023-03-16T16:58:54.443Z,56.14
2023-03-16T17:02:24.425Z,56.65
2023-03-16T17:05:32.927Z,57.17
2023-03-16T17:08:41.542Z,57.81
2023-03-16T17:11:50.929Z,58.00
2023-03-16T17:14:59.265Z,58.71
2023-03-16T17:18:15.022Z,59.53
2023-03-16T17:21:26.175Z,59.88
2023-03-16T17:24:34.603Z,60.02
2023-03-16T17:27:46.812Z,60.39
2023-03-16T17:30:55.927Z,60.46
2023-03-16T17:34:19.140Z,61.47
2023-03-16T17:37:28.753Z,62.33
2023-03-16T17:40:37.538Z,61.86
2023-03-16T17:43:47.903Z,61.77
2023-03-16T17:46:56.514Z,62.94
2023-03-16T17:50:17.945Z,63.17
2023-03-16T17:53:26.518Z,63.83
2023-03-16T17:56:37.151Z,64.44
2023-03-16T17:59:47.346Z,64.98
2023-03-16T18:03:00.862Z,65.65
2023-03-16T18:06:18.092Z,65.26
2023-03-16T18:09:28.666Z,65.66
2023-03-16T18:12:37.166Z,66.43
2023-03-16T18:15:47.732Z,66.69
2023-03-16T18:19:01.040Z,67.03
2023-03-16T18:22:19.425Z,67.08
2023-03-16T18:25:39.536Z,67.89
2023-03-16T18:28:48.422Z,67.80
2023-03-16T18:31:59.367Z,68.51
2023-03-16T18:35:16.821Z,69.10
2023-03-16T18:38:31.475Z,69.72
2023-03-16T18:41:39.748Z,69.41
2023-03-16T18:44:48.810Z,69.69
2023-03-16T18:47:58.011Z,70.09
2023-03-16T18:51:06.815Z,69.80
2023-03-16T18:54:23.452Z,71.01
2023-03-16T18:57:33.288Z,70.58
2023-03-16T19:00:42.098Z,70.98
2023-03-16T19:03:51.884Z,70.89
2023-03-16T19:07:00.392Z,71.41
2023-03-16T19:10:24.238Z,71.48
2023-03-16T19:13:32.646Z,71.49
2023-03-16T19:16:40.971Z,72.02
2023-03-16T19:19:49.331Z,71.54
2023-03-16T19:23:04.657Z,71.32
2023-03-16T19:26:15.257Z,71.48
2023-03-16T19:29:30.376Z,71.42
2023-03-16T19:32:38.711Z,71.34
2023-03-16T19:35:51.903Z,72.00
2023-03-16T19:39:01.374Z,71.22
2023-03-16T19:42:22.329Z,71.12
2023-03-16T19:45:34.321Z,71.24
2023-03-16T19:48:43.476Z,71.22
2023-03-16T19:51:54.696Z,71.69
2023-03-16T19:55:03.297Z,71.61
2023-03-16T19:58:29.370Z,71.09
2023-03-16T20:01:37.890Z,71.08
2023-03-16T20:04:46.522Z,71.85
2023-03-16T20:07:55.864Z,71.26
2023-03-16T20:11:08.690Z,71.67
2023-03-16T20:14:24.644Z,70.22
2023-03-16T20:17:32.940Z,72.10
2023-03-16T20:20:41.988Z,73.51
2023-03-16T20:23:50.314Z,73.24
2023-03-16T20:26:58.505Z,73.70
2023-03-16T20:30:17.679Z,73.52
2023-03-16T20:33:28.871Z,74.59
2023-03-16T20:36:37.137Z,74.26
2023-03-16T20:39:45.470Z,73.17
2023-03-16T20:42:54.688Z,73.00
2023-03-16T20:46:04.779Z,73.11
2023-03-16T20:49:34.191Z,72.62
2023-03-16T20:52:42.443Z,72.25
2023-03-16T20:55:53.173Z,72.14
2023-03-16T20:59:01.629Z,72.00
2023-03-16T21:02:28.159Z,72.22
2023-03-16T21:05:36.563Z,72.29
2023-03-16T21:08:44.918Z,72.56
2023-03-16T21:11:53.284Z,72.49
2023-03-16T21:15:03.701Z,72.43
2023-03-16T21:18:19.816Z,72.87
2023-03-16T21:21:28.050Z,73.05
2023-03-16T21:24:37.088Z,73.64
2023-03-16T21:27:45.422Z,72.99
2023-03-16T21:30:58.058Z,73.01
2023-03-16T21:34:19.673Z,73.43
2023-03-16T21:37:28.288Z,73.62
2023-03-16T21:40:36.509Z,73.31
2023-03-16T21:43:46.677Z,74.30
2023-03-16T21:46:54.984Z,73.92
2023-03-16T21:50:14.062Z,74.94
2023-03-16T21:53:25.682Z,74.67
2023-03-16T21:56:34.032Z,74.53
2023-03-16T21:59:42.269Z,75.31
2023-03-16T22:02:53.731Z,75.00
2023-03-16T22:06:03.436Z,75.24
2023-03-16T22:09:30.213Z,75.22
2023-03-16T22:12:38.601Z,74.92
2023-03-16T22:15:49.408Z,74.72
2023-03-16T22:18:58.979Z,75.44
2023-03-16T22:22:16.000Z,74.95
2023-03-16T22:25:26.625Z,75.00
2023-03-16T22:28:35.916Z,75.29
2023-03-16T22:31:44.045Z,75.30
2023-03-16T22:34:56.886Z,75.25
2023-03-16T22:38:12.327Z,75.71
2023-03-16T22:41:20.685Z,75.81
2023-03-16T22:44:28.997Z,75.41
2023-03-16T22:47:38.653Z,76.01
2023-03-16T22:50:48.196Z,75.77
2023-03-16T22:54:02.395Z,75.91
2023-03-16T22:57:15.270Z,76.06
2023-03-16T23:00:28.624Z,76.63
2023-03-16T23:03:37.754Z,76.64
2023-03-16T23:06:53.367Z,76.69
2023-03-16T23:10:02.876Z,76.27
2023-03-16T23:13:17.890Z,76.76
2023-03-16T23:16:29.200Z,77.34
2023-03-16T23:19:37.468Z,77.62
2023-03-16T23:22:45.618Z,77.37
2023-03-16T23:25:55.180Z,77.40
2023-03-16T23:29:03.297Z,77.15
2023-03-16T23:32:12.786Z,77.74
2023-03-16T23:35:25.432Z,77.45
2023-03-16T23:38:33.899Z,77.92
2023-03-16T23:41:48.009Z,77.44
2023-03-16T23:45:08.364Z,77.95
2023-03-16T23:48:20.416Z,78.38
2023-03-16T23:51:31.448Z,78.04
2023-03-16T23:54:39.646Z,79.09
2023-03-16T23:57:49.574Z,78.71
